Time;durP1;ratioP1;P1;durP2;ratioP2;P2;SDS_P1;SDS_P2;PMS_P1;PMS_P2;Temp;Humidity;BMP_temperature;BMP_pressure;BME280_temperature;BME280_humidity;BME280_pressure;Samples;Min_cycle;Max_cycle;Signal;HPM_P1;HPM_P2
2022/03/23 00:02:04;;;;;;;18.55;8.75;;;;;;;;;;5081413;28;20126;-49
2022/03/23 00:04:31;;;;;;;18.67;8.93;;;;;;;;;;5087834;28;20086;-48
2022/03/23 00:06:58;;;;;;;14.98;8.65;;;;;;;;;;5082445;28;20024;-48
2022/03/23 00:09:26;;;;;;;19.00;9.45;;;;;;;;;;5083418;28;20932;-50
2022/03/23 00:11:52;;;;;;;16.48;8.65;;;;;;;;;;5077793;28;20028;-51
2022/03/23 00:14:18;;;;;;;16.50;8.82;;;;;;;;;;5081850;28;20047;-48
2022/03/23 00:16:44;;;;;;;20.45;9.63;;;;;;;;;;5082767;28;20054;-51
2022/03/23 00:19:10;;;;;;;18.23;8.50;;;;;;;;;;5085806;28;20027;-47
2022/03/23 00:21:37;;;;;;;16.50;9.05;;;;;;;;;;5086427;28;20442;-48
2022/03/23 00:24:03;;;;;;;16.95;8.60;;;;;;;;;;5090675;28;20020;-47
2022/03/23 00:26:29;;;;;;;15.80;7.95;;;;;;;;;;5081481;28;20563;-48
2022/03/23 00:28:55;;;;;;;19.30;9.38;;;;;;;;;;5086241;28;20024;-47
2022/03/23 00:31:22;;;;;;;16.55;8.63;;;;;;;;;;5074160;28;20595;-47
2022/03/23 00:33:49;;;;;;;16.42;8.57;;;;;;;;;;5085050;28;20051;-48
2022/03/23 00:36:15;;;;;;;17.75;9.10;;;;;;;;;;5081034;28;20444;-51
2022/03/23 00:38:41;;;;;;;19.27;9.43;;;;;;;;;;5086527;28;20047;-50
2022/03/23 00:41:08;;;;;;;22.98;9.88;;;;;;;;;;5086802;28;20032;-51
2022/03/23 00:43:35;;;;;;;19.77;9.68;;;;;;;;;;5087684;28;20028;-50
2022/03/23 00:46:01;;;;;;;22.67;10.65;;;;;;;;;;5075429;28;20366;-47
2022/03/23 00:48:27;;;;;;;21.65;10.07;;;;;;;;;;5086663;28;20092;-49
2022/03/23 00:50:54;;;;;;;20.92;10.35;;;;;;;;;;5081052;28;20035;-53
2022/03/23 00:53:20;;;;;;;20.98;10.13;;;;;;;;;;5080317;28;20464;-47
2022/03/23 00:55:46;;;;;;;18.15;9.55;;;;;;;;;;5076665;28;20377;-48
2022/03/23 00:58:12;;;;;;;20.33;11.07;;;;;;;;;;5080107;28;20036;-47
2022/03/23 01:00:38;;;;;;;24.23;10.95;;;;;;;;;;5080559;28;20033;-49
2022/03/23 01:03:04;;;;;;;22.65;10.52;;;;;;;;;;5086285;28;20039;-48
2022/03/23 01:05:30;;;;;;;21.38;10.55;;;;;;;;;;5079489;28;20024;-48
2022/03/23 01:07:56;;;;;;;22.95;10.18;;;;;;;;;;5086972;28;20028;-47
2022/03/23 01:10:24;;;;;;;18.95;10.05;;;;;;;;;;5091651;28;20122;-48
2022/03/23 01:12:50;;;;;;;21.13;10.20;;;;;;;;;;5095121;28;20051;-47
2022/03/23 01:15:19;;;;;;;19.75;10.55;;;;;;;;;;5088774;28;20475;-48
2022/03/23 01:17:45;;;;;;;20.02;10.57;;;;;;;;;;5086199;28;20067;-48
2022/03/23 01:20:12;;;;;;;18.85;9.27;;;;;;;;;;5084757;28;20040;-50
2022/03/23 01:22:38;;;;;;;18.23;9.93;;;;;;;;;;5083334;28;20032;-49
2022/03/23 01:25:05;;;;;;;22.50;10.82;;;;;;;;;;5076603;28;20017;-48
2022/03/23 01:27:31;;;;;;;22.50;11.57;;;;;;;;;;5082768;28;20438;-48
2022/03/23 01:29:57;;;;;;;23.73;10.05;;;;;;;;;;5092634;28;20040;-48
2022/03/23 01:32:23;;;;;;;18.73;9.75;;;;;;;;;;5092262;28;20032;-49
2022/03/23 01:34:49;;;;;;;20.13;9.55;;;;;;;;;;5087330;28;20088;-47
2022/03/23 01:37:16;;;;;;;23.33;11.82;;;;;;;;;;5082787;28;20457;-47
2022/03/23 01:39:42;;;;;;;20.63;10.85;;;;;;;;;;5085114;28;20025;-47
2022/03/23 01:42:08;;;;;;;27.45;10.68;;;;;;;;;;5086745;28;20104;-47
2022/03/23 01:44:34;;;;;;;20.73;10.38;;;;;;;;;;5084146;28;20448;-48
2022/03/23 01:47:11;;;;;;;23.42;11.40;;;;;;;;;;5087964;28;20107;-47
2022/03/23 01:49:40;;;;;;;23.83;10.57;;;;;;;;;;5090339;28;20034;-48
2022/03/23 01:52:07;;;;;;;27.20;11.82;;;;;;;;;;5091764;28;20556;-47
2022/03/23 01:54:34;;;;;;;20.13;10.48;;;;;;;;;;5076938;28;20048;-47
2022/03/23 01:57:01;;;;;;;19.25;10.93;;;;;;;;;;5090369;28;20464;-47
2022/03/23 01:59:27;;;;;;;25.08;11.63;;;;;;;;;;5088552;28;20074;-49
2022/03/23 02:01:53;;;;;;;23.90;11.73;;;;;;;;;;5090287;28;20054;-51
2022/03/23 02:04:19;;;;;;;24.00;11.52;;;;;;;;;;5088861;28;20028;-52
2022/03/23 02:06:46;;;;;;;23.00;11.23;;;;;;;;;;5085940;28;20024;-52
2022/03/23 02:09:12;;;;;;;19.92;11.40;;;;;;;;;;5092673;28;20089;-48
2022/03/23 02:11:38;;;;;;;17.38;9.82;;;;;;;;;;5089138;28;20472;-51
2022/03/23 02:14:04;;;;;;;19.30;9.93;;;;;;;;;;5083724;28;20076;-49
2022/03/23 02:16:30;;;;;;;22.70;10.73;;;;;;;;;;5085425;28;20422;-49
2022/03/23 02:18:56;;;;;;;24.77;10.65;;;;;;;;;;5082083;28;20031;-48
2022/03/23 02:21:22;;;;;;;24.75;11.25;;;;;;;;;;5084174;28;20633;-48
2022/03/23 02:23:48;;;;;;;21.17;11.27;;;;;;;;;;5089793;28;20020;-49
2022/03/23 02:26:15;;;;;;;22.08;10.98;;;;;;;;;;5083867;28;20026;-48
2022/03/23 02:28:41;;;;;;;19.50;10.60;;;;;;;;;;5088037;28;20024;-51
2022/03/23 02:31:07;;;;;;;21.02;10.15;;;;;;;;;;5091844;28;20433;-51
2022/03/23 02:33:33;;;;;;;24.65;10.40;;;;;;;;;;5088106;28;20415;-49
2022/03/23 02:35:59;;;;;;;26.38;10.65;;;;;;;;;;5091442;28;20035;-48
2022/03/23 02:38:25;;;;;;;17.40;9.15;;;;;;;;;;5089767;28;20039;-50
2022/03/23 02:40:51;;;;;;;17.20;9.93;;;;;;;;;;5074825;28;20043;-51
2022/03/23 02:43:18;;;;;;;23.33;10.43;;;;;;;;;;5090388;28;20024;-50
2022/03/23 02:45:43;;;;;;;23.13;10.82;;;;;;;;;;5089434;28;20579;-51
2022/03/23 02:48:09;;;;;;;20.20;10.23;;;;;;;;;;5078830;28;20031;-48
2022/03/23 02:50:35;;;;;;;20.27;10.80;;;;;;;;;;5079797;28;20510;-50
2022/03/23 03:04:18;;;;;;;17.85;10.65;;;;;;;;;;5080114;28;20043;-48
2022/03/23 03:06:44;;;;;;;21.98;10.02;;;;;;;;;;5075482;28;20024;-52
2022/03/23 03:09:10;;;;;;;23.40;10.88;;;;;;;;;;5077991;28;20016;-53
2022/03/23 03:11:36;;;;;;;17.17;10.18;;;;;;;;;;5088003;28;20494;-48
2022/03/23 03:14:02;;;;;;;20.58;10.57;;;;;;;;;;5083409;28;20091;-49
2022/03/23 03:16:28;;;;;;;16.80;8.95;;;;;;;;;;5084987;28;20055;-51
2022/03/23 03:18:54;;;;;;;21.52;10.73;;;;;;;;;;5089313;28;20024;-50
2022/03/23 03:21:20;;;;;;;18.80;10.35;;;;;;;;;;5085061;28;20044;-49
2022/03/23 03:23:47;;;;;;;20.48;10.23;;;;;;;;;;5082056;28;20031;-49
2022/03/23 03:26:14;;;;;;;20.02;10.68;;;;;;;;;;5089449;28;20032;-53
2022/03/23 03:28:40;;;;;;;25.08;11.25;;;;;;;;;;5090860;28;20030;-50
2022/03/23 03:31:07;;;;;;;23.17;11.85;;;;;;;;;;5084172;28;20108;-49
2022/03/23 03:33:34;;;;;;;22.77;11.45;;;;;;;;;;5087268;28;20060;-51
2022/03/23 03:36:00;;;;;;;19.88;9.32;;;;;;;;;;5079023;28;20028;-54
2022/03/23 03:38:30;;;;;;;23.73;10.98;;;;;;;;;;5086658;28;20353;-52
2022/03/23 03:40:57;;;;;;;22.75;11.35;;;;;;;;;;5077372;28;20028;-49
2022/03/23 03:43:24;;;;;;;29.05;12.70;;;;;;;;;;5088919;28;20024;-48
2022/03/23 03:45:50;;;;;;;22.67;11.80;;;;;;;;;;5084045;28;20027;-52
2022/03/23 03:48:17;;;;;;;24.25;11.77;;;;;;;;;;5088751;28;20460;-53
2022/03/23 03:50:43;;;;;;;23.92;11.38;;;;;;;;;;5083459;28;20029;-52
2022/03/23 03:53:09;;;;;;;27.45;12.00;;;;;;;;;;5087594;28;20513;-50
2022/03/23 03:55:36;;;;;;;23.02;11.18;;;;;;;;;;5089572;28;20034;-50
2022/03/23 03:58:03;;;;;;;25.38;11.70;;;;;;;;;;5091104;28;20483;-49
2022/03/23 04:00:29;;;;;;;21.42;11.18;;;;;;;;;;5080023;28;20464;-49
2022/03/23 04:02:55;;;;;;;22.95;11.23;;;;;;;;;;5085842;28;20519;-49
2022/03/23 04:05:21;;;;;;;24.45;11.98;;;;;;;;;;5076850;28;20108;-48
2022/03/23 04:07:47;;;;;;;22.92;12.38;;;;;;;;;;5090402;28;20027;-53
2022/03/23 04:10:13;;;;;;;20.65;11.63;;;;;;;;;;5074514;28;20032;-49
2022/03/23 04:12:39;;;;;;;23.95;12.13;;;;;;;;;;5084713;28;20567;-49
2022/03/23 04:15:05;;;;;;;24.42;12.30;;;;;;;;;;5088551;28;20028;-49
2022/03/23 04:17:31;;;;;;;24.05;11.98;;;;;;;;;;5087409;28;20027;-51
2022/03/23 04:19:57;;;;;;;25.10;12.35;;;;;;;;;;5090068;28;20142;-48
2022/03/23 04:22:23;;;;;;;27.95;12.82;;;;;;;;;;5088776;28;20099;-48
2022/03/23 04:24:49;;;;;;;25.63;13.55;;;;;;;;;;5084107;28;20194;-51
2022/03/23 04:27:15;;;;;;;24.80;11.77;;;;;;;;;;5087952;28;20035;-49
2022/03/23 04:29:41;;;;;;;25.63;13.13;;;;;;;;;;5081913;28;20028;-49
2022/03/23 04:32:08;;;;;;;27.35;12.88;;;;;;;;;;5089375;28;20094;-49
2022/03/23 04:34:34;;;;;;;23.92;12.27;;;;;;;;;;5091327;28;20027;-50
2022/03/23 04:37:00;;;;;;;21.42;11.95;;;;;;;;;;5088480;28;20484;-51
2022/03/23 04:39:26;;;;;;;21.20;13.13;;;;;;;;;;5090236;28;20032;-50
2022/03/23 04:41:52;;;;;;;24.30;12.77;;;;;;;;;;5084217;28;20074;-50
2022/03/23 04:44:19;;;;;;;28.02;12.27;;;;;;;;;;5093078;28;20039;-48
2022/03/23 04:46:45;;;;;;;26.63;11.95;;;;;;;;;;5089600;28;20048;-51
2022/03/23 04:49:11;;;;;;;26.38;12.40;;;;;;;;;;5093205;28;20020;-50
2022/03/23 04:51:36;;;;;;;23.65;12.40;;;;;;;;;;5093873;28;20028;-50
2022/03/23 04:54:04;;;;;;;24.13;12.48;;;;;;;;;;5086934;28;20074;-48
2022/03/23 04:56:30;;;;;;;25.20;12.27;;;;;;;;;;5088812;28;20051;-48
2022/03/23 04:58:56;;;;;;;27.20;13.95;;;;;;;;;;5086263;28;20036;-48
2022/03/23 05:01:22;;;;;;;20.98;11.75;;;;;;;;;;5084361;28;20028;-49
2022/03/23 05:03:48;;;;;;;27.33;12.80;;;;;;;;;;5080712;28;20035;-48
2022/03/23 05:06:14;;;;;;;28.33;13.30;;;;;;;;;;5082727;28;20036;-48
2022/03/23 05:08:40;;;;;;;23.15;13.00;;;;;;;;;;5083762;28;20024;-48
2022/03/23 05:11:06;;;;;;;26.30;12.93;;;;;;;;;;5093161;28;20024;-51
2022/03/23 05:13:34;;;;;;;28.08;12.93;;;;;;;;;;5083519;28;20029;-48
2022/03/23 05:16:00;;;;;;;33.28;13.70;;;;;;;;;;5082014;28;20433;-53
2022/03/23 05:18:28;;;;;;;22.48;12.60;;;;;;;;;;5086418;28;20063;-48
2022/03/23 05:20:54;;;;;;;23.50;12.40;;;;;;;;;;5077245;28;20051;-48
2022/03/23 05:23:20;;;;;;;28.33;13.30;;;;;;;;;;5078519;28;20020;-48
2022/03/23 05:25:46;;;;;;;25.13;13.45;;;;;;;;;;5094204;28;20035;-49
2022/03/23 05:28:12;;;;;;;26.60;13.48;;;;;;;;;;5080777;28;20138;-48
2022/03/23 05:30:38;;;;;;;24.52;12.45;;;;;;;;;;5085024;28;20028;-51
2022/03/23 05:33:04;;;;;;;25.55;12.55;;;;;;;;;;5089253;28;20032;-50
2022/03/23 05:35:30;;;;;;;25.30;12.15;;;;;;;;;;5077375;28;20033;-50
2022/03/23 05:37:56;;;;;;;24.08;12.45;;;;;;;;;;5079713;28;20031;-50
2022/03/23 05:40:23;;;;;;;23.30;12.70;;;;;;;;;;5079072;28;20024;-50
2022/03/23 05:42:49;;;;;;;24.30;12.55;;;;;;;;;;5084343;28;20427;-48
2022/03/23 05:45:16;;;;;;;25.83;12.82;;;;;;;;;;5082764;28;20145;-50
2022/03/23 05:47:42;;;;;;;25.63;12.52;;;;;;;;;;5087147;28;20153;-48
2022/03/23 05:50:09;;;;;;;28.08;13.38;;;;;;;;;;5094029;28;20028;-52
2022/03/23 05:52:35;;;;;;;26.38;13.70;;;;;;;;;;5084860;28;20103;-51
2022/03/23 05:55:01;;;;;;;26.73;13.00;;;;;;;;;;5091391;28;20377;-49
2022/03/23 05:57:28;;;;;;;27.60;13.27;;;;;;;;;;5078553;28;20062;-51
2022/03/23 05:59:54;;;;;;;28.70;12.90;;;;;;;;;;5085723;28;20044;-48
2022/03/23 06:02:21;;;;;;;27.90;13.23;;;;;;;;;;5086491;28;20032;-49
2022/03/23 06:04:47;;;;;;;26.35;13.75;;;;;;;;;;5089376;28;20174;-48
2022/03/23 06:07:13;;;;;;;25.00;13.15;;;;;;;;;;5081640;28;20029;-48
2022/03/23 06:09:39;;;;;;;27.27;13.75;;;;;;;;;;5078597;28;20118;-48
2022/03/23 06:12:06;;;;;;;32.47;13.48;;;;;;;;;;5086351;28;20464;-48
2022/03/23 06:14:32;;;;;;;24.40;13.18;;;;;;;;;;5085160;28;20437;-48
2022/03/23 06:16:58;;;;;;;27.42;13.23;;;;;;;;;;5089118;28;20056;-48
2022/03/23 06:19:24;;;;;;;28.83;14.00;;;;;;;;;;5077376;28;20037;-50
2022/03/23 06:21:50;;;;;;;29.35;14.20;;;;;;;;;;5086518;28;20106;-50
2022/03/23 06:24:16;;;;;;;30.50;14.02;;;;;;;;;;5086617;28;20024;-49
2022/03/23 06:26:42;;;;;;;28.48;14.43;;;;;;;;;;5083271;28;20057;-52
2022/03/23 06:29:08;;;;;;;28.73;13.70;;;;;;;;;;5088226;28;20028;-50
2022/03/23 06:31:34;;;;;;;25.63;13.65;;;;;;;;;;5084459;28;20082;-49
2022/03/23 06:34:00;;;;;;;27.80;14.05;;;;;;;;;;5085901;28;20024;-49
2022/03/23 06:36:26;;;;;;;26.33;14.15;;;;;;;;;;5085341;28;20048;-48
2022/03/23 06:38:52;;;;;;;28.92;15.02;;;;;;;;;;5089098;28;20036;-50
2022/03/23 06:41:18;;;;;;;27.73;14.00;;;;;;;;;;5083293;28;20502;-50
2022/03/23 06:43:44;;;;;;;26.67;12.82;;;;;;;;;;5081760;28;20028;-49
2022/03/23 06:46:10;;;;;;;29.40;14.35;;;;;;;;;;5083888;28;20360;-48
2022/03/23 06:48:36;;;;;;;31.15;14.90;;;;;;;;;;5076804;28;20028;-48
2022/03/23 06:51:03;;;;;;;29.13;15.52;;;;;;;;;;5087801;28;20028;-48
2022/03/23 06:53:29;;;;;;;31.02;14.63;;;;;;;;;;5088592;28;20052;-49
2022/03/23 06:55:55;;;;;;;29.10;14.48;;;;;;;;;;5082561;28;20442;-50
2022/03/23 06:58:21;;;;;;;28.27;14.50;;;;;;;;;;5081890;28;20032;-48
2022/03/23 07:00:47;;;;;;;29.52;13.90;;;;;;;;;;5088602;28;20028;-50
2022/03/23 07:03:13;;;;;;;35.20;13.95;;;;;;;;;;5083030;28;20020;-49
2022/03/23 07:05:39;;;;;;;34.50;15.40;;;;;;;;;;5082759;28;20415;-52
2022/03/23 07:10:50;;;;;;;32.55;16.40;;;;;;;;;;5078542;28;20047;-49
2022/03/23 07:13:16;;;;;;;38.00;15.68;;;;;;;;;;5090027;28;20395;-49
2022/03/23 07:15:42;;;;;;;24.08;13.30;;;;;;;;;;5082860;28;20031;-48
2022/03/23 07:18:09;;;;;;;26.80;13.60;;;;;;;;;;5083908;28;20028;-49
2022/03/23 07:20:35;;;;;;;22.52;13.27;;;;;;;;;;5076874;28;20027;-47
2022/03/23 07:23:01;;;;;;;27.35;13.90;;;;;;;;;;5090550;28;20051;-49
2022/03/23 07:25:27;;;;;;;25.67;13.60;;;;;;;;;;5084143;28;20081;-48
2022/03/23 07:27:53;;;;;;;26.08;12.18;;;;;;;;;;5084260;28;20028;-49
2022/03/23 07:30:20;;;;;;;30.83;13.52;;;;;;;;;;5083924;28;20032;-48
2022/03/23 07:32:46;;;;;;;26.92;13.13;;;;;;;;;;5084138;28;20431;-48
2022/03/23 07:35:12;;;;;;;31.02;13.43;;;;;;;;;;5086741;28;20743;-49
2022/03/23 07:37:38;;;;;;;26.05;13.85;;;;;;;;;;5080845;28;20415;-48
2022/03/23 07:40:04;;;;;;;25.98;13.75;;;;;;;;;;5079376;28;20024;-48
2022/03/23 07:42:30;;;;;;;28.02;15.00;;;;;;;;;;5087166;28;20028;-49
2022/03/23 07:44:57;;;;;;;37.03;15.30;;;;;;;;;;5082615;28;20032;-47
2022/03/23 07:47:23;;;;;;;32.38;15.45;;;;;;;;;;5088259;28;20028;-47
2022/03/23 07:49:49;;;;;;;28.65;15.52;;;;;;;;;;5076475;28;20016;-48
2022/03/23 07:52:15;;;;;;;29.80;14.65;;;;;;;;;;5080008;28;20380;-49
2022/03/23 07:54:40;;;;;;;29.48;15.48;;;;;;;;;;5078013;28;20056;-48
2022/03/23 07:57:06;;;;;;;24.17;13.77;;;;;;;;;;5081143;28;20027;-48
2022/03/23 07:59:33;;;;;;;28.15;14.57;;;;;;;;;;5090979;28;20036;-50
2022/03/23 08:01:59;;;;;;;23.00;12.93;;;;;;;;;;5078687;28;20033;-50
2022/03/23 08:04:25;;;;;;;32.65;13.85;;;;;;;;;;5078004;28;20442;-50
2022/03/23 08:06:51;;;;;;;29.15;13.27;;;;;;;;;;5074820;28;20028;-49
2022/03/23 08:09:17;;;;;;;23.60;12.77;;;;;;;;;;5081529;28;20024;-48
2022/03/23 08:11:43;;;;;;;30.00;14.70;;;;;;;;;;5084460;28;20032;-50
2022/03/23 08:14:08;;;;;;;26.60;13.48;;;;;;;;;;5085989;28;20349;-52
2022/03/23 08:16:34;;;;;;;27.38;14.20;;;;;;;;;;5085986;28;20031;-52
2022/03/23 08:19:00;;;;;;;25.90;13.60;;;;;;;;;;5092171;28;20047;-50
2022/03/23 08:21:28;;;;;;;25.10;13.52;;;;;;;;;;5074626;28;20082;-48
2022/03/23 08:23:55;;;;;;;25.10;13.05;;;;;;;;;;5083652;28;20039;-49
2022/03/23 08:26:21;;;;;;;26.75;12.68;;;;;;;;;;5085904;28;20024;-49
2022/03/23 08:28:47;;;;;;;24.42;12.32;;;;;;;;;;5087316;28;20024;-50
2022/03/23 08:31:14;;;;;;;25.83;13.40;;;;;;;;;;5081681;28;20055;-52
2022/03/23 08:33:40;;;;;;;22.40;11.57;;;;;;;;;;5086310;28;20457;-48
2022/03/23 08:36:07;;;;;;;24.88;12.63;;;;;;;;;;5086111;28;20114;-48
2022/03/23 08:38:33;;;;;;;23.85;12.68;;;;;;;;;;5072088;28;20093;-50
2022/03/23 08:40:59;;;;;;;25.05;12.50;;;;;;;;;;5082244;28;20035;-49
2022/03/23 08:43:26;;;;;;;26.70;13.63;;;;;;;;;;5088651;28;20028;-50
2022/03/23 08:45:52;;;;;;;24.15;12.20;;;;;;;;;;5089416;28;20476;-50
2022/03/23 08:48:18;;;;;;;20.08;12.00;;;;;;;;;;5087140;28;20031;-51
2022/03/23 08:50:45;;;;;;;26.65;13.38;;;;;;;;;;5090656;28;20502;-48
2022/03/23 08:53:11;;;;;;;24.98;12.15;;;;;;;;;;5084636;28;20044;-48
2022/03/23 08:55:37;;;;;;;26.15;12.98;;;;;;;;;;5082386;28;20023;-48
2022/03/23 08:58:03;;;;;;;23.63;12.80;;;;;;;;;;5081251;28;20069;-48
2022/03/23 09:00:29;;;;;;;22.52;12.02;;;;;;;;;;5086666;28;20076;-46
2022/03/23 09:02:55;;;;;;;23.73;11.70;;;;;;;;;;5075085;28;20020;-47
2022/03/23 09:05:21;;;;;;;24.10;11.85;;;;;;;;;;5087481;28;20081;-46
2022/03/23 09:07:47;;;;;;;23.13;11.45;;;;;;;;;;5085172;28;20490;-46
2022/03/23 09:10:14;;;;;;;22.35;11.45;;;;;;;;;;5082916;28;20020;-46
2022/03/23 09:12:41;;;;;;;25.10;12.13;;;;;;;;;;5078141;28;20032;-46
2022/03/23 09:15:08;;;;;;;20.75;11.48;;;;;;;;;;5078634;28;20025;-46
2022/03/23 09:17:34;;;;;;;22.50;10.93;;;;;;;;;;5089867;28;20040;-51
2022/03/23 09:20:04;;;;;;;21.25;10.55;;;;;;;;;;5082861;28;20461;-47
2022/03/23 09:22:34;;;;;;;22.13;10.88;;;;;;;;;;5083212;28;20035;-51
2022/03/23 09:25:00;;;;;;;20.35;11.13;;;;;;;;;;5085541;28;20111;-49
2022/03/23 09:27:26;;;;;;;20.08;11.20;;;;;;;;;;5084872;28;20047;-48
2022/03/23 09:29:52;;;;;;;24.83;10.75;;;;;;;;;;5093412;28;20035;-48
2022/03/23 09:32:18;;;;;;;19.25;11.30;;;;;;;;;;5089747;28;20031;-47
2022/03/23 09:34:45;;;;;;;17.40;10.52;;;;;;;;;;5088174;28;20032;-47
2022/03/23 09:39:56;;;;;;;14.90;9.60;;;;;;;;;;5076738;28;20515;-48
2022/03/23 09:42:24;;;;;;;15.90;9.85;;;;;;;;;;5077297;28;20040;-47
2022/03/23 09:44:52;;;;;;;18.48;9.90;;;;;;;;;;5081712;28;20025;-46
2022/03/23 09:47:18;;;;;;;21.27;10.50;;;;;;;;;;5083397;28;20043;-47
2022/03/23 09:49:44;;;;;;;20.80;10.43;;;;;;;;;;5091092;28;20426;-47
2022/03/23 09:52:10;;;;;;;17.67;10.13;;;;;;;;;;5086156;28;20036;-46
2022/03/23 09:54:37;;;;;;;18.38;11.35;;;;;;;;;;5089173;28;20514;-47
2022/03/23 09:57:05;;;;;;;21.98;11.82;;;;;;;;;;5089755;28;20081;-47
2022/03/23 09:59:31;;;;;;;21.40;11.07;;;;;;;;;;5091042;28;20024;-52
2022/03/23 10:01:57;;;;;;;19.52;10.98;;;;;;;;;;5083944;28;20039;-48
2022/03/23 10:04:41;;;;;;;22.50;10.63;;;;;;;;;;5091537;28;20032;-49
2022/03/23 10:07:14;;;;;;;20.13;11.07;;;;;;;;;;5088443;28;20025;-47
2022/03/23 10:09:40;;;;;;;23.23;11.43;;;;;;;;;;5086590;28;20107;-47
2022/03/23 10:12:25;;;;;;;19.67;10.60;;;;;;;;;;5089872;28;20023;-48
2022/03/23 10:15:10;;;;;;;18.75;10.18;;;;;;;;;;5087763;28;20134;-47
2022/03/23 10:17:38;;;;;;;18.25;10.32;;;;;;;;;;5092692;28;20035;-47
2022/03/23 10:20:04;;;;;;;20.70;10.98;;;;;;;;;;5092537;28;20031;-50
2022/03/23 10:22:30;;;;;;;20.08;10.93;;;;;;;;;;5084288;28;20385;-48
2022/03/23 10:25:07;;;;;;;18.88;11.05;;;;;;;;;;5082752;28;20020;-47
2022/03/23 10:27:33;;;;;;;17.42;10.50;;;;;;;;;;5087947;28;20378;-48
2022/03/23 10:29:58;;;;;;;25.58;10.73;;;;;;;;;;5086488;28;20106;-51
2022/03/23 10:32:33;;;;;;;17.73;9.85;;;;;;;;;;5088578;28;20116;-47
2022/03/23 10:34:59;;;;;;;19.08;11.13;;;;;;;;;;5082155;28;20374;-47
2022/03/23 10:37:29;;;;;;;19.90;11.25;;;;;;;;;;5081290;28;20077;-48
2022/03/23 10:39:56;;;;;;;16.60;10.48;;;;;;;;;;5091593;28;20036;-47
2022/03/23 10:42:23;;;;;;;16.90;9.63;;;;;;;;;;5089861;28;20038;-47
2022/03/23 10:44:50;;;;;;;17.63;10.35;;;;;;;;;;5081122;28;20042;-47
2022/03/23 10:47:25;;;;;;;17.77;10.48;;;;;;;;;;5088127;28;20035;-47
2022/03/23 10:49:51;;;;;;;19.55;11.75;;;;;;;;;;5085029;28;20024;-48
2022/03/23 10:52:18;;;;;;;19.38;10.63;;;;;;;;;;5085953;28;20032;-50
2022/03/23 10:54:56;;;;;;;20.63;11.30;;;;;;;;;;5090602;28;20055;-52
2022/03/23 10:57:35;;;;;;;17.85;10.25;;;;;;;;;;5078972;28;20037;-49
2022/03/23 11:00:01;;;;;;;18.95;10.77;;;;;;;;;;5080235;28;20103;-47
2022/03/23 11:02:27;;;;;;;18.98;11.45;;;;;;;;;;5080236;28;20103;-52
2022/03/23 11:04:56;;;;;;;17.05;10.13;;;;;;;;;;5082851;28;20027;-48
2022/03/23 11:07:24;;;;;;;19.10;10.57;;;;;;;;;;5082854;28;20025;-47
2022/03/23 11:18:15;;;;;;;17.88;9.85;;;;;;;;;;5090972;28;20039;-51
2022/03/23 11:20:41;;;;;;;21.30;10.77;;;;;;;;;;5085205;28;20029;-48
2022/03/23 11:23:19;;;;;;;16.77;9.65;;;;;;;;;;5087219;28;20678;-48
2022/03/23 11:25:46;;;;;;;20.73;10.35;;;;;;;;;;5085449;28;20028;-52
2022/03/23 11:28:14;;;;;;;16.27;9.15;;;;;;;;;;5086530;28;20024;-47
2022/03/23 11:30:41;;;;;;;17.00;9.82;;;;;;;;;;5087536;28;20543;-48
2022/03/23 11:33:08;;;;;;;17.45;9.13;;;;;;;;;;5089349;28;20456;-48
2022/03/23 11:35:34;;;;;;;15.75;9.20;;;;;;;;;;5091203;28;20027;-48
2022/03/23 11:38:01;;;;;;;18.35;9.43;;;;;;;;;;5088715;28;20039;-49
2022/03/23 11:40:27;;;;;;;17.67;9.65;;;;;;;;;;5084527;28;20779;-46
2022/03/23 11:42:53;;;;;;;16.13;9.07;;;;;;;;;;5089838;28;20030;-46
2022/03/23 11:45:19;;;;;;;16.38;8.68;;;;;;;;;;5080551;28;20020;-46
2022/03/23 11:47:48;;;;;;;14.52;8.52;;;;;;;;;;5082313;28;20423;-47
2022/03/23 11:50:26;;;;;;;16.58;9.25;;;;;;;;;;5086415;28;20016;-47
2022/03/23 11:52:58;;;;;;;19.35;10.43;;;;;;;;;;5087887;28;20034;-48
2022/03/23 11:55:39;;;;;;;16.63;9.50;;;;;;;;;;5085633;28;20393;-47
2022/03/23 11:58:15;;;;;;;14.32;8.63;;;;;;;;;;5090391;28;20117;-47
2022/03/23 12:00:43;;;;;;;14.15;9.52;;;;;;;;;;5080197;28;20037;-47
2022/03/23 12:03:09;;;;;;;21.55;10.75;;;;;;;;;;5087268;28;20021;-46
2022/03/23 12:05:36;;;;;;;18.38;9.82;;;;;;;;;;5077202;28;20028;-48
2022/03/23 12:08:03;;;;;;;17.90;9.90;;;;;;;;;;5084392;28;20028;-51
2022/03/23 12:10:32;;;;;;;15.65;9.55;;;;;;;;;;5089308;28;20429;-48
2022/03/23 12:13:12;;;;;;;14.60;8.70;;;;;;;;;;5084348;28;20020;-48
2022/03/23 12:15:54;;;;;;;15.45;9.25;;;;;;;;;;5086393;28;20028;-52
2022/03/23 12:18:37;;;;;;;12.55;8.82;;;;;;;;;;5074770;28;20131;-52
2022/03/23 12:21:04;;;;;;;13.82;8.93;;;;;;;;;;5079224;28;20046;-51
2022/03/23 12:23:33;;;;;;;13.70;8.40;;;;;;;;;;5082653;28;20044;-49
2022/03/23 12:26:12;;;;;;;15.02;7.53;;;;;;;;;;5087744;28;20071;-49
2022/03/23 12:28:43;;;;;;;10.57;7.55;;;;;;;;;;5083072;28;20444;-53
2022/03/23 12:31:14;;;;;;;13.10;8.65;;;;;;;;;;5081643;28;20131;-47
2022/03/23 12:33:58;;;;;;;13.13;7.93;;;;;;;;;;5085915;28;20036;-47
2022/03/23 12:36:56;;;;;;;16.98;8.60;;;;;;;;;;5074967;28;20024;-49
2022/03/23 12:39:20;;;;;;;12.57;7.50;;;;;;;;;;5085068;28;20039;-49
2022/03/23 12:41:46;;;;;;;10.27;7.28;;;;;;;;;;5085857;28;20028;-47
2022/03/23 12:44:12;;;;;;;13.63;7.63;;;;;;;;;;5078969;28;20063;-47
2022/03/23 12:46:43;;;;;;;10.88;7.53;;;;;;;;;;5076896;28;20020;-52
2022/03/23 13:00:25;;;;;;;10.27;6.97;;;;;;;;;;5084741;28;20052;-48
2022/03/23 13:03:22;;;;;;;11.07;7.40;;;;;;;;;;5079903;28;20040;-51
2022/03/23 13:05:57;;;;;;;12.38;7.05;;;;;;;;;;5081891;28;20028;-46
2022/03/23 13:08:27;;;;;;;14.55;7.40;;;;;;;;;;5088030;28;20039;-48
2022/03/23 13:11:00;;;;;;;13.68;7.82;;;;;;;;;;5084845;28;20136;-49
2022/03/23 13:13:27;;;;;;;9.73;6.43;;;;;;;;;;5088109;28;20437;-48
2022/03/23 13:15:53;;;;;;;11.60;6.78;;;;;;;;;;5092239;28;20420;-48
2022/03/23 13:18:26;;;;;;;11.73;7.35;;;;;;;;;;5093019;28;20502;-51
2022/03/23 13:20:52;;;;;;;11.95;7.07;;;;;;;;;;5087046;28;20826;-51
2022/03/23 13:23:19;;;;;;;11.43;7.07;;;;;;;;;;5090300;28;20020;-48
2022/03/23 13:25:45;;;;;;;10.82;7.78;;;;;;;;;;5081727;28;20058;-49
2022/03/23 13:28:14;;;;;;;13.23;7.88;;;;;;;;;;5084372;28;20058;-50
2022/03/23 13:30:42;;;;;;;11.77;7.55;;;;;;;;;;5083418;28;20089;-47
2022/03/23 13:33:15;;;;;;;12.38;8.13;;;;;;;;;;5081863;28;20415;-47
2022/03/23 13:35:46;;;;;;;15.60;8.05;;;;;;;;;;5085192;28;20419;-48
2022/03/23 13:38:11;;;;;;;11.20;7.60;;;;;;;;;;5079189;28;20028;-47
2022/03/23 13:43:32;;;;;;;12.55;8.18;;;;;;;;;;5086064;28;20043;-47
2022/03/23 13:45:59;;;;;;;15.98;7.95;;;;;;;;;;5088504;28;20032;-48
2022/03/23 13:48:30;;;;;;;14.07;8.63;;;;;;;;;;5091110;28;20044;-47
2022/03/23 13:50:57;;;;;;;14.45;8.18;;;;;;;;;;5083268;28;20028;-48
2022/03/23 13:53:23;;;;;;;15.73;8.27;;;;;;;;;;5088560;28;20145;-48
2022/03/23 13:55:51;;;;;;;13.18;7.70;;;;;;;;;;5089014;28;20020;-49
2022/03/23 13:58:18;;;;;;;11.75;7.82;;;;;;;;;;5084832;28;20070;-49
2022/03/23 14:00:44;;;;;;;12.23;8.43;;;;;;;;;;5078507;28;20036;-54
2022/03/23 14:03:11;;;;;;;11.55;7.53;;;;;;;;;;5089458;28;20073;-50
2022/03/23 14:05:37;;;;;;;10.75;7.43;;;;;;;;;;5088712;28;20089;-49
2022/03/23 14:08:05;;;;;;;13.02;7.70;;;;;;;;;;5084511;28;20028;-51
2022/03/23 14:10:33;;;;;;;13.10;8.35;;;;;;;;;;5075281;28;20030;-48
2022/03/23 14:13:01;;;;;;;12.50;7.80;;;;;;;;;;5089059;28;20024;-47
2022/03/23 14:15:28;;;;;;;11.25;7.35;;;;;;;;;;5091979;28;20024;-47
2022/03/23 14:18:00;;;;;;;13.77;7.30;;;;;;;;;;5087734;28;20032;-47
2022/03/23 14:20:26;;;;;;;12.10;8.45;;;;;;;;;;5087160;28;20520;-49
2022/03/23 14:22:53;;;;;;;13.95;8.05;;;;;;;;;;5087539;28;20031;-47
2022/03/23 14:25:20;;;;;;;12.45;7.68;;;;;;;;;;5087854;28;20407;-47
2022/03/23 14:27:49;;;;;;;13.45;8.20;;;;;;;;;;5085612;28;20533;-49
2022/03/23 14:30:16;;;;;;;13.93;7.90;;;;;;;;;;5087396;28;20372;-52
2022/03/23 14:32:42;;;;;;;14.13;6.97;;;;;;;;;;5089883;28;20052;-48
2022/03/23 14:35:10;;;;;;;13.02;7.80;;;;;;;;;;5081120;28;20028;-51
2022/03/23 14:37:38;;;;;;;15.80;8.63;;;;;;;;;;5093088;28;20146;-50
2022/03/23 14:40:23;;;;;;;13.25;7.75;;;;;;;;;;5090014;28;20480;-54
2022/03/23 14:42:50;;;;;;;11.88;7.40;;;;;;;;;;5085708;28;20052;-48
2022/03/23 14:45:33;;;;;;;11.15;7.25;;;;;;;;;;5088016;28;20079;-51
2022/03/23 14:47:59;;;;;;;;;;;;;;;;;;5088256;28;20024;-50
2022/03/23 14:50:26;;;;;;;10.50;7.03;;;;;;;;;;5084916;28;19993;-50
2022/03/23 14:52:53;;;;;;;9.50;6.70;;;;;;;;;;5081942;28;20025;-50
2022/03/23 14:55:19;;;;;;;10.95;6.95;;;;;;;;;;5084801;28;20036;-52
2022/03/23 14:57:45;;;;;;;13.13;7.63;;;;;;;;;;5088528;28;20406;-48
2022/03/23 15:00:12;;;;;;;12.30;7.60;;;;;;;;;;5081966;28;20024;-50
2022/03/23 15:02:38;;;;;;;11.05;7.32;;;;;;;;;;5084273;28;20060;-50